Grice, Texas
Current Conditions -  °F | °C
As of 2:35 PM on Monday 22 Dec 2014 (Local Time) from KOSA Reporting Station
Scattered Clouds Scattered Clouds  
Wind Chill: 68°   Ceiling: Unl
Heat Index: 68°   Visibility: 10mi
Dew Point: 49°   Wind: 13mph
Humidity: 50%   Direction: 250°WSW
Pressure: 29.56"   Gusts: 17mph
Location:  32.7353°N, 94.9492°W
Report Text: KOSA 222035Z AUTO 25011G15KT 10SM SCT044 20/09 A2956 RMK AO1 T01990092
Loading
Personal Weather Stations






























Interactive Weather Map New forecast layout! Learn more

10-Day Weather Forecast

Advertisements
Track Severe Weather on mobile